Kitscoty, Canada
Current Conditions -  °F | °C
As of 8:00 PM on Wednesday 26 Nov 2014 (Local Time) from CYLL Reporting Station
Overcast Overcast  
Wind Chill: -1°   Ceiling: 1200
Heat Index: 12°   Visibility: 15mi
Dew Point: 10°   Wind: 10mph
Humidity: 92%   Direction: 170°S
Pressure: 30.14"   Gusts: NA
Location:  53.34°N, 110.33°W
Report Text: CYLL 270300Z 17009KT 15SM OVC012 M11/M12 A3014 RMK SC8 SLP266
Loading
Personal Weather Stations






























Interactive Weather Map New forecast layout! Learn more

10-Day Weather Forecast

Advertisements
Track Severe Weather on mobile